Time;durP1;ratioP1;P1;durP2;ratioP2;P2;SDS_P1;SDS_P2;PMS_P1;PMS_P2;Temp;Humidity;BMP_temperature;BMP_pressure;BME280_temperature;BME280_humidity;BME280_pressure;Samples;Min_cycle;Max_cycle;Signal;HPM_P1;HPM_P2
2021/07/17 00:02:19;;;;;;;22.45;12.27;;;;;;;14.75;55.02;96281.63;5007346;28;20387;-71
2021/07/17 00:04:44;;;;;;;21.55;11.90;;;;;;;14.42;55.76;96275.63;5007465;28;20043;-71
2021/07/17 00:07:11;;;;;;;20.77;12.80;;;;;;;14.54;55.68;96276.00;5008399;28;20392;-71
2021/07/17 00:09:37;;;;;;;22.02;12.75;;;;;;;13.94;57.68;96276.03;5008034;28;20069;-71
2021/07/17 00:12:03;;;;;;;26.02;12.05;;;;;;;14.34;56.43;96273.91;5007826;28;20283;-71
2021/07/17 00:14:28;;;;;;;22.35;12.57;;;;;;;14.25;56.07;96268.81;5010531;28;20026;-71
2021/07/17 00:16:54;;;;;;;23.13;11.73;;;;;;;13.91;57.78;96271.03;5008812;28;20344;-71
2021/07/17 00:19:19;;;;;;;20.00;11.70;;;;;;;13.87;58.07;96265.19;5008461;28;20026;-72
2021/07/17 00:21:45;;;;;;;23.35;12.18;;;;;;;13.44;59.10;96263.91;5007922;28;20037;-72
2021/07/17 00:24:10;;;;;;;20.73;12.15;;;;;;;13.69;58.82;96268.19;5008455;28;20030;-72
2021/07/17 00:26:36;;;;;;;24.35;12.60;;;;;;;13.94;57.91;96259.97;5018865;28;20044;-71
2021/07/17 00:29:01;;;;;;;21.25;12.23;;;;;;;13.73;58.37;96258.78;5008112;28;20718;-71
2021/07/17 00:31:27;;;;;;;20.17;12.20;;;;;;;14.26;56.47;96251.75;5007363;28;20038;-72
2021/07/17 00:33:52;;;;;;;22.83;12.63;;;;;;;13.69;58.32;96257.50;5006718;28;20042;-71
2021/07/17 00:36:17;;;;;;;22.23;12.43;;;;;;;14.07;56.82;96256.63;5008604;28;20077;-71
2021/07/17 00:38:43;;;;;;;21.15;12.07;;;;;;;14.05;57.10;96250.66;5007985;28;20033;-72
2021/07/17 00:41:09;;;;;;;19.05;11.02;;;;;;;14.05;57.40;96256.00;5008744;28;20104;-71
2021/07/17 00:43:34;;;;;;;25.38;12.30;;;;;;;14.25;56.05;96253.59;5006758;28;20735;-71
2021/07/17 00:46:00;;;;;;;24.27;11.48;;;;;;;14.35;55.93;96261.34;5007794;28;20742;-71
2021/07/17 00:48:25;;;;;;;20.88;11.45;;;;;;;14.40;56.16;96264.28;5006851;28;20042;-72
2021/07/17 00:50:50;;;;;;;23.45;11.40;;;;;;;13.77;57.85;96268.13;4986749;28;20039;-71
2021/07/17 00:53:16;;;;;;;23.67;10.63;;;;;;;14.32;56.31;96267.06;5003662;28;20026;-71
2021/07/17 00:55:43;;;;;;;24.83;11.35;;;;;;;13.92;57.33;96268.19;5007851;28;20442;-71
2021/07/17 00:58:08;;;;;;;18.48;11.02;;;;;;;14.13;56.80;96268.44;5005896;28;20038;-71
2021/07/17 01:00:34;;;;;;;18.10;10.55;;;;;;;14.55;55.48;96258.09;5006814;28;20406;-71
2021/07/17 01:03:04;;;;;;;21.52;11.73;;;;;;;14.38;56.11;96263.63;5010592;28;20061;-71
2021/07/17 01:05:30;;;;;;;21.25;11.45;;;;;;;14.24;56.36;96262.63;5006087;28;20040;-72
2021/07/17 01:07:55;;;;;;;22.20;11.07;;;;;;;14.54;55.33;96264.44;5008156;28;20050;-71
2021/07/17 01:10:21;;;;;;;22.83;10.43;;;;;;;14.65;55.10;96261.28;4989807;28;20038;-72
2021/07/17 01:12:47;;;;;;;16.98;11.05;;;;;;;14.62;55.22;96264.31;5008338;28;20033;-72
2021/07/17 01:15:12;;;;;;;17.55;11.02;;;;;;;14.82;54.19;96266.47;5005864;28;20403;-72
2021/07/17 01:17:38;;;;;;;26.40;11.95;;;;;;;14.41;55.76;96257.91;5005900;28;20042;-72
2021/07/17 01:20:13;;;;;;;21.48;11.25;;;;;;;14.46;55.64;96255.47;4988529;28;20022;-72
2021/07/17 01:22:39;;;;;;;22.00;10.45;;;;;;;14.86;54.23;96259.69;5007390;28;20824;-71
2021/07/17 01:25:06;;;;;;;26.50;10.93;;;;;;;14.69;55.11;96262.56;4990599;28;20029;-71
2021/07/17 01:27:32;;;;;;;26.02;11.60;;;;;;;14.77;54.41;96268.88;5007639;28;20040;-71
2021/07/17 01:29:57;;;;;;;22.63;10.65;;;;;;;14.44;55.56;96265.56;5006125;28;20030;-71
2021/07/17 01:32:24;;;;;;;24.40;11.07;;;;;;;14.29;55.60;96267.44;5007856;28;20026;-71
2021/07/17 01:34:49;;;;;;;17.77;10.25;;;;;;;14.43;55.81;96269.28;4992598;28;20491;-72
2021/07/17 01:37:15;;;;;;;16.00;9.15;;;;;;;14.90;54.28;96271.72;4974971;28;20034;-71
2021/07/17 01:39:40;;;;;;;19.33;9.23;;;;;;;15.13;53.81;96278.72;5006250;28;20482;-71
2021/07/17 01:42:08;;;;;;;15.90;8.38;;;;;;;15.49;52.73;96266.25;4993289;28;20072;-72
2021/07/17 01:44:43;;;;;;;12.60;8.55;;;;;;;15.45;52.43;96265.84;5009884;28;20033;-72
2021/07/17 01:47:09;;;;;;;17.27;9.45;;;;;;;15.34;52.52;96263.66;4993367;28;20033;-72
2021/07/17 01:49:35;;;;;;;13.65;8.43;;;;;;;15.30;53.12;96262.41;5010845;28;20034;-72
2021/07/17 01:52:00;;;;;;;15.93;9.77;;;;;;;15.13;53.30;96259.13;5010196;28;20040;-72
2021/07/17 01:54:25;;;;;;;15.50;9.32;;;;;;;15.07;53.56;96258.91;5010920;28;20544;-72
2021/07/17 01:56:51;;;;;;;15.13;9.27;;;;;;;14.99;53.77;96259.00;5011677;28;20042;-72
2021/07/17 01:59:16;;;;;;;16.80;9.02;;;;;;;14.93;53.92;96260.56;5010844;28;20068;-72
2021/07/17 02:01:41;;;;;;;12.02;7.22;;;;;;;15.12;53.64;96255.63;5019483;28;20029;-72
2021/07/17 02:04:07;;;;;;;13.60;8.13;;;;;;;15.16;53.07;96251.53;5009258;28;20034;-72
2021/07/17 02:06:32;;;;;;;14.05;8.50;;;;;;;15.27;52.78;96241.31;5008176;28;20053;-71
2021/07/17 02:08:58;;;;;;;13.10;8.30;;;;;;;15.17;53.12;96242.47;5009623;28;20053;-71
2021/07/17 02:11:23;;;;;;;13.02;7.30;;;;;;;15.42;52.61;96228.66;5010724;28;20038;-72
2021/07/17 02:13:53;;;;;;;11.77;7.78;;;;;;;15.28;52.89;96235.75;5005255;28;20041;-72
2021/07/17 02:16:19;;;;;;;12.68;7.95;;;;;;;14.93;53.75;96236.44;5000904;28;20041;-71
2021/07/17 02:18:45;;;;;;;13.85;7.15;;;;;;;15.38;52.43;96234.59;5009334;28;20052;-72
2021/07/17 02:21:10;;;;;;;12.23;8.15;;;;;;;15.18;52.82;96238.78;4993224;28;20038;-71
2021/07/17 02:23:36;;;;;;;12.80;6.95;;;;;;;15.24;52.37;96235.31;5009203;28;20335;-71
2021/07/17 02:26:01;;;;;;;14.82;8.55;;;;;;;14.97;53.35;96237.75;5008946;28;20038;-72
2021/07/17 02:28:27;;;;;;;13.93;8.23;;;;;;;14.78;54.10;96243.72;5011118;28;20041;-71
2021/07/17 02:30:52;;;;;;;14.15;7.60;;;;;;;14.62;54.60;96239.41;5008902;28;20045;-72
2021/07/17 02:33:18;;;;;;;14.73;8.27;;;;;;;14.77;53.97;96242.06;5010929;28;20034;-72
2021/07/17 02:35:44;;;;;;;13.63;8.10;;;;;;;14.78;53.96;96238.34;4989368;28;20065;-71
2021/07/17 02:38:09;;;;;;;15.57;8.52;;;;;;;14.80;54.15;96236.31;5007398;28;20030;-71
2021/07/17 02:40:35;;;;;;;14.25;8.23;;;;;;;14.27;55.48;96229.28;5010738;28;20040;-71
2021/07/17 02:43:00;;;;;;;14.85;8.68;;;;;;;14.17;55.26;96225.06;5010013;28;20050;-71
2021/07/17 02:45:26;;;;;;;12.95;7.90;;;;;;;14.23;55.57;96225.31;4989067;28;20037;-72
2021/07/17 02:47:51;;;;;;;15.18;8.63;;;;;;;14.19;55.61;96223.03;4999021;28;20038;-71
2021/07/17 02:50:17;;;;;;;15.32;7.80;;;;;;;13.97;56.51;96232.00;5008563;28;20034;-71
2021/07/17 02:52:42;;;;;;;12.75;8.00;;;;;;;13.91;56.83;96234.38;5008497;28;20113;-71
2021/07/17 02:55:08;;;;;;;12.15;8.00;;;;;;;14.03;56.34;96242.78;5010031;28;20041;-71
2021/07/17 02:57:33;;;;;;;12.52;7.90;;;;;;;14.31;55.57;96238.63;5009939;28;20116;-71
2021/07/17 02:59:59;;;;;;;15.45;8.68;;;;;;;14.11;56.07;96236.50;5009065;28;20183;-71
2021/07/17 03:02:25;;;;;;;11.48;7.75;;;;;;;14.24;55.58;96221.66;5019393;28;20034;-71
2021/07/17 03:04:50;;;;;;;11.88;7.50;;;;;;;13.89;56.77;96222.19;5004481;28;20033;-71
2021/07/17 03:07:16;;;;;;;15.05;7.97;;;;;;;13.65;57.78;96219.59;5008017;28;20064;-71
2021/07/17 03:09:41;;;;;;;13.25;8.35;;;;;;;13.48;58.07;96218.06;5008363;28;20038;-71
2021/07/17 03:12:06;;;;;;;11.40;7.75;;;;;;;13.63;57.45;96226.94;5009802;28;20026;-71
2021/07/17 03:14:32;;;;;;;11.57;7.93;;;;;;;13.51;57.34;96221.22;5009460;28;20171;-71
2021/07/17 03:16:58;;;;;;;9.90;7.13;;;;;;;13.80;56.80;96221.44;5008648;28;20033;-72
2021/07/17 03:19:23;;;;;;;13.23;7.82;;;;;;;13.24;57.98;96211.94;5008276;28;20128;-71
2021/07/17 03:21:49;;;;;;;11.18;7.60;;;;;;;13.22;58.43;96209.44;5009311;28;20045;-71
2021/07/17 03:24:14;;;;;;;11.63;7.72;;;;;;;13.19;58.77;96212.47;5009537;28;20034;-71
2021/07/17 03:26:40;;;;;;;15.40;7.35;;;;;;;13.70;57.03;96211.00;5009072;28;20038;-71
2021/07/17 03:29:05;;;;;;;11.88;7.65;;;;;;;13.46;58.03;96204.06;5009599;28;20049;-71
2021/07/17 03:31:31;;;;;;;14.73;8.10;;;;;;;13.42;57.89;96201.75;5009188;28;20407;-71
2021/07/17 03:33:57;;;;;;;11.88;7.38;;;;;;;13.27;58.56;96200.88;5007594;28;20033;-71
2021/07/17 03:36:22;;;;;;;11.27;7.40;;;;;;;12.98;59.71;96194.44;5007498;28;20022;-71
2021/07/17 03:38:48;;;;;;;13.85;7.72;;;;;;;13.14;58.86;96205.00;5008424;28;20117;-71
2021/07/17 03:41:13;;;;;;;13.60;8.23;;;;;;;12.99;59.50;96212.13;4990763;28;20034;-71
2021/07/17 03:43:39;;;;;;;12.70;7.15;;;;;;;13.38;58.08;96211.16;5009230;28;20025;-71
2021/07/17 03:46:04;;;;;;;13.93;7.00;;;;;;;13.35;58.50;96208.84;5008741;28;20026;-71
2021/07/17 03:48:30;;;;;;;10.98;6.35;;;;;;;12.98;59.06;96203.25;5000836;28;20037;-71
2021/07/17 03:50:55;;;;;;;13.05;8.40;;;;;;;12.70;60.32;96205.63;5008809;28;20049;-71
2021/07/17 03:53:20;;;;;;;17.75;9.32;;;;;;;12.70;60.22;96210.97;5007723;28;20033;-71
2021/07/17 03:55:46;;;;;;;14.05;7.95;;;;;;;12.82;60.22;96222.94;5008945;28;20026;-71
2021/07/17 03:58:11;;;;;;;15.45;7.88;;;;;;;13.26;58.89;96216.09;5008619;28;20447;-71
2021/07/17 04:00:37;;;;;;;14.80;7.38;;;;;;;13.38;58.36;96213.81;5008645;28;20030;-71
2021/07/17 04:03:04;;;;;;;12.02;7.88;;;;;;;13.27;58.75;96209.75;5019666;28;20096;-71
2021/07/17 04:05:29;;;;;;;11.13;7.38;;;;;;;13.41;58.65;96202.78;5006688;28;20033;-71
2021/07/17 04:07:55;;;;;;;14.25;7.30;;;;;;;13.01;59.63;96202.94;4991543;28;20145;-71
2021/07/17 04:10:20;;;;;;;11.95;7.68;;;;;;;13.25;58.86;96200.22;5007126;28;20841;-71
2021/07/17 04:12:46;;;;;;;11.65;7.28;;;;;;;13.38;58.63;96205.81;5008721;28;20021;-71
2021/07/17 04:15:11;;;;;;;10.30;7.03;;;;;;;13.59;57.61;96208.78;5008164;28;20041;-71
2021/07/17 04:17:37;;;;;;;13.43;7.65;;;;;;;13.21;59.18;96212.28;5007061;28;20065;-71
2021/07/17 04:20:04;;;;;;;12.77;6.93;;;;;;;13.19;59.03;96215.16;5007441;28;20042;-71
2021/07/17 04:22:29;;;;;;;12.05;7.05;;;;;;;13.50;58.41;96216.06;5006903;28;20038;-71
2021/07/17 04:24:55;;;;;;;11.07;7.57;;;;;;;13.64;57.49;96215.25;5008943;28;20041;-71
2021/07/17 04:27:20;;;;;;;10.57;7.70;;;;;;;13.52;58.20;96209.50;5008710;28;20034;-71
2021/07/17 04:29:46;;;;;;;17.80;7.68;;;;;;;13.86;56.87;96210.00;5008740;28;20034;-71
2021/07/17 04:32:11;;;;;;;15.27;7.30;;;;;;;13.85;57.04;96216.38;5008365;28;20034;-71
2021/07/17 04:34:37;;;;;;;13.43;8.18;;;;;;;13.81;57.48;96215.09;5008139;28;20030;-72
2021/07/17 04:37:02;;;;;;;16.80;8.05;;;;;;;13.75;57.18;96207.78;5008462;28;20466;-71
2021/07/17 04:39:28;;;;;;;12.60;8.15;;;;;;;13.90;57.73;96203.28;5008482;28;20046;-71
2021/07/17 04:41:53;;;;;;;12.55;7.70;;;;;;;13.93;56.98;96210.97;5008097;28;20065;-71
2021/07/17 04:44:18;;;;;;;15.50;8.85;;;;;;;13.49;59.15;96215.22;4989186;28;20022;-71
2021/07/17 04:46:44;;;;;;;15.45;8.45;;;;;;;13.61;58.58;96210.28;5005092;28;20093;-71
2021/07/17 04:49:09;;;;;;;40.28;9.77;;;;;;;13.59;58.81;96212.28;5003860;28;20053;-71
2021/07/17 04:51:35;;;;;;;12.88;9.07;;;;;;;13.65;58.58;96216.91;5008467;28;20041;-71
2021/07/17 04:54:00;;;;;;;18.83;8.80;;;;;;;13.99;57.59;96214.75;4988064;28;20603;-71
2021/07/17 04:56:25;;;;;;;16.30;8.70;;;;;;;14.04;57.23;96217.69;5008497;28;20038;-72
2021/07/17 04:58:51;;;;;;;16.10;8.35;;;;;;;14.05;57.28;96207.81;5007687;28;20038;-71
2021/07/17 05:01:18;;;;;;;30.05;9.23;;;;;;;14.10;56.90;96221.47;5012068;28;20021;-71
2021/07/17 05:03:43;;;;;;;115.68;11.48;;;;;;;13.05;60.96;96216.75;5011751;28;20099;-72
2021/07/17 05:06:09;;;;;;;17.77;8.07;;;;;;;13.64;58.08;96209.91;5008198;28;20081;-71
2021/07/17 05:08:34;;;;;;;15.85;7.75;;;;;;;14.19;56.05;96193.59;4974998;28;20054;-71
2021/07/17 05:10:59;;;;;;;16.70;9.30;;;;;;;13.63;58.73;96202.88;5012045;28;20034;-71
2021/07/17 05:13:25;;;;;;;17.00;9.32;;;;;;;13.51;58.68;96207.84;5011919;28;20038;-71
2021/07/17 05:15:50;;;;;;;20.40;9.90;;;;;;;13.48;59.46;96204.69;5012222;28;20034;-72
2021/07/17 05:18:16;;;;;;;24.77;10.25;;;;;;;13.57;59.21;96211.66;5012166;28;20037;-71
2021/07/17 05:20:41;;;;;;;30.38;9.85;;;;;;;13.39;58.73;96207.47;5011143;28;20033;-71
2021/07/17 05:23:07;;;;;;;20.60;8.77;;;;;;;13.87;57.48;96210.84;5010467;28;20038;-71
2021/07/17 05:25:32;;;;;;;27.60;9.27;;;;;;;13.59;58.20;96201.59;5011630;28;20458;-71
2021/07/17 05:27:58;;;;;;;17.23;9.32;;;;;;;13.37;59.71;96206.81;5012436;28;20038;-71
2021/07/17 05:30:23;;;;;;;40.72;10.90;;;;;;;13.77;57.97;96208.44;5011697;28;20041;-71
2021/07/17 05:32:49;;;;;;;23.10;9.95;;;;;;;13.54;58.75;96203.97;4975074;28;20030;-71
2021/07/17 05:35:14;;;;;;;25.00;10.20;;;;;;;13.36;59.67;96210.50;5000500;28;20450;-71
2021/07/17 05:37:40;;;;;;;48.90;10.98;;;;;;;13.67;57.89;96220.22;5009734;28;20068;-72
2021/07/17 05:40:06;;;;;;;29.13;10.60;;;;;;;13.87;58.64;96221.53;5011936;28;20034;-71
2021/07/17 05:42:31;;;;;;;24.27;10.57;;;;;;;13.78;58.18;96221.63;5010380;28;20041;-71
2021/07/17 05:44:57;;;;;;;65.72;11.25;;;;;;;13.99;56.78;96220.09;5011329;28;20080;-71
2021/07/17 05:47:22;;;;;;;56.28;10.10;;;;;;;14.21;57.34;96218.31;5003352;28;20062;-72
2021/07/17 05:49:48;;;;;;;20.98;9.70;;;;;;;13.77;58.34;96213.78;5011052;28;20447;-71
2021/07/17 05:52:13;;;;;;;20.05;9.50;;;;;;;14.12;57.80;96215.94;5012143;28;20034;-72
2021/07/17 05:54:38;;;;;;;36.60;11.00;;;;;;;14.42;57.04;96223.94;5009652;28;20037;-71
2021/07/17 05:57:05;;;;;;;29.08;8.55;;;;;;;14.20;56.23;96223.84;5010353;28;20046;-71
2021/07/17 05:59:31;;;;;;;32.20;9.02;;;;;;;14.19;56.50;96225.72;5010924;28;20172;-71
2021/07/17 06:01:56;;;;;;;31.77;9.60;;;;;;;13.94;58.16;96228.66;5018118;28;20281;-71
2021/07/17 06:04:22;;;;;;;55.20;9.88;;;;;;;14.42;55.55;96229.28;5011193;28;20034;-71
2021/07/17 06:06:47;;;;;;;19.95;9.43;;;;;;;13.80;57.96;96224.09;5008941;28;20068;-71
2021/07/17 06:09:13;;;;;;;28.90;8.40;;;;;;;13.99;57.44;96227.28;4998812;28;20041;-71
2021/07/17 06:11:38;;;;;;;28.13;9.15;;;;;;;13.81;58.56;96228.47;5010448;28;20136;-72
2021/07/17 06:14:03;;;;;;;26.73;8.90;;;;;;;13.93;59.00;96231.53;5009037;28;20088;-71
2021/07/17 06:16:29;;;;;;;31.63;10.05;;;;;;;13.78;59.10;96234.19;5009282;28;20121;-71
2021/07/17 06:18:54;;;;;;;60.65;11.00;;;;;;;13.99;58.22;96241.50;5010267;28;20046;-72
2021/07/17 06:21:20;;;;;;;25.83;8.25;;;;;;;13.91;58.59;96237.06;5010345;28;20034;-71
2021/07/17 06:23:45;;;;;;;43.55;8.75;;;;;;;13.62;58.86;96244.03;5010688;28;20416;-71
2021/07/17 06:26:11;;;;;;;19.90;9.15;;;;;;;13.48;60.45;96250.16;4995918;28;20562;-72
2021/07/17 06:28:37;;;;;;;61.40;9.05;;;;;;;13.55;59.13;96246.59;5003397;28;20034;-71
2021/07/17 06:31:03;;;;;;;47.97;10.93;;;;;;;13.87;59.78;96250.97;5006766;28;20136;-71
2021/07/17 06:33:28;;;;;;;48.80;10.23;;;;;;;13.99;58.53;96246.03;4996909;28;20471;-72
2021/07/17 06:35:53;;;;;;;19.48;10.40;;;;;;;13.94;58.72;96260.78;5002583;28;20045;-72
2021/07/17 06:38:19;;;;;;;12.45;8.10;;;;;;;13.40;60.04;96259.94;5001130;28;20048;-73
2021/07/17 06:40:45;;;;;;;13.20;9.65;;;;;;;13.43;59.71;96259.56;5003324;28;20026;-72
2021/07/17 06:43:10;;;;;;;13.60;9.52;;;;;;;13.49;59.62;96251.84;5001848;28;20049;-72
2021/07/17 06:45:36;;;;;;;14.95;11.00;;;;;;;13.85;58.65;96259.19;4992574;28;20033;-71
2021/07/17 06:48:01;;;;;;;15.57;10.73;;;;;;;14.02;58.45;96259.03;4998889;28;20328;-71
2021/07/17 06:50:26;;;;;;;21.27;10.85;;;;;;;14.54;56.16;96256.41;5003887;28;20437;-72
2021/07/17 06:52:52;;;;;;;17.98;10.88;;;;;;;14.52;56.54;96250.41;5001310;28;20475;-72
2021/07/17 06:55:17;;;;;;;18.73;11.85;;;;;;;14.26;57.51;96255.25;5001455;28;20053;-71
2021/07/17 06:57:45;;;;;;;22.55;12.73;;;;;;;13.39;59.75;96258.28;4999227;28;20141;-72
2021/07/17 07:00:11;;;;;;;16.95;11.90;;;;;;;13.87;58.79;96262.50;4999629;28;20082;-72
2021/07/17 07:02:37;;;;;;;22.33;11.68;;;;;;;14.67;55.60;96264.63;4990697;28;20479;-72
2021/07/17 07:05:04;;;;;;;20.27;12.50;;;;;;;14.80;55.99;96257.78;4984414;28;20121;-72
2021/07/17 07:07:29;;;;;;;19.50;11.80;;;;;;;15.34;53.86;96259.13;5001300;28;20701;-72
2021/07/17 07:09:55;;;;;;;17.98;11.35;;;;;;;15.49;54.85;96261.72;5003397;28;20127;-72
2021/07/17 07:12:20;;;;;;;19.10;11.20;;;;;;;15.67;53.66;96255.06;5002629;28;20275;-72
2021/07/17 07:14:45;;;;;;;17.67;10.30;;;;;;;15.64;53.31;96260.84;5006961;28;20530;-72
2021/07/17 07:17:11;;;;;;;18.52;11.02;;;;;;;15.22;53.95;96256.13;5001982;28;20531;-75
2021/07/17 07:19:36;;;;;;;15.90;10.55;;;;;;;14.61;55.78;96264.53;5003227;28;20109;-76
2021/07/17 07:22:03;;;;;;;22.02;11.18;;;;;;;15.43;54.24;96262.50;4985337;28;20038;-76
2021/07/17 07:24:29;;;;;;;20.95;11.02;;;;;;;15.37;53.78;96268.66;5001564;28;20557;-76
2021/07/17 07:26:56;;;;;;;25.60;11.57;;;;;;;15.28;53.51;96272.47;4986089;28;20038;-76
2021/07/17 07:29:21;;;;;;;20.67;11.68;;;;;;;14.34;57.33;96270.38;5000953;28;20040;-76
2021/07/17 07:31:47;;;;;;;13.98;10.75;;;;;;;14.37;57.98;96271.84;4982496;28;20038;-76
2021/07/17 07:34:12;;;;;;;16.00;9.52;;;;;;;15.91;54.11;96269.06;4981996;28;20034;-76
2021/07/17 07:36:38;;;;;;;20.08;10.65;;;;;;;15.90;53.40;96272.78;4965573;28;20447;-76
2021/07/17 07:39:03;;;;;;;13.18;7.45;;;;;;;15.68;53.83;96270.19;4981745;28;20398;-76
2021/07/17 07:41:29;;;;;;;19.15;10.35;;;;;;;15.79;52.18;96257.22;4983002;28;20529;-77
2021/07/17 07:43:54;;;;;;;22.23;9.85;;;;;;;15.42;54.59;96270.72;4983987;28;20459;-76
2021/07/17 07:46:20;;;;;;;15.10;9.13;;;;;;;14.62;56.62;96275.03;4982884;28;20105;-77
2021/07/17 07:48:45;;;;;;;17.67;8.40;;;;;;;15.05;55.26;96279.69;4982859;28;20359;-76
2021/07/17 07:51:10;;;;;;;14.00;8.10;;;;;;;16.49;53.07;96273.34;4981350;28;20038;-76
2021/07/17 07:53:36;;;;;;;15.90;8.18;;;;;;;17.35;52.06;96261.41;4981951;28;20083;-76
2021/07/17 07:56:02;;;;;;;14.32;6.95;;;;;;;17.27;49.69;96273.22;4981688;28;20101;-76
2021/07/17 07:58:28;;;;;;;13.57;6.43;;;;;;;16.76;49.92;96262.69;4981311;28;20579;-64
2021/07/17 08:00:54;;;;;;;13.75;6.97;;;;;;;16.07;53.66;96261.72;4972979;28;20447;-64
2021/07/17 08:03:20;;;;;;;14.43;6.82;;;;;;;16.14;52.02;96267.97;4997730;28;20030;-69
2021/07/17 08:05:45;;;;;;;13.65;7.30;;;;;;;16.34;52.17;96267.25;5006026;28;20037;-64
2021/07/17 08:08:10;;;;;;;9.27;5.20;;;;;;;15.59;53.31;96271.31;5000863;28;20054;-69
2021/07/17 08:10:36;;;;;;;14.13;6.75;;;;;;;15.56;54.29;96271.72;5003990;28;20038;-68
2021/07/17 08:13:01;;;;;;;10.68;6.45;;;;;;;15.94;52.25;96275.94;5003902;28;20034;-68
2021/07/17 08:15:27;;;;;;;13.90;6.72;;;;;;;16.06;52.26;96270.81;5003259;28;20146;-69
2021/07/17 08:17:52;;;;;;;13.38;6.05;;;;;;;16.39;51.90;96283.66;5006537;28;20156;-68
2021/07/17 08:20:18;;;;;;;11.82;5.35;;;;;;;15.63;52.81;96280.66;5003326;28;20483;-68
2021/07/17 08:22:43;;;;;;;17.45;5.45;;;;;;;15.19;53.63;96274.44;5002858;28;20240;-68
2021/07/17 08:25:09;;;;;;;11.20;5.88;;;;;;;14.54;56.30;96285.88;5003193;28;20070;-68
2021/07/17 08:27:35;;;;;;;13.65;5.55;;;;;;;14.40;57.92;96285.72;5002226;28;20554;-68
2021/07/17 08:30:00;;;;;;;9.20;4.90;;;;;;;14.07;55.67;96288.75;5010654;28;20505;-68
2021/07/17 08:32:26;;;;;;;15.02;6.85;;;;;;;14.22;57.30;96291.47;5003985;28;20466;-68
2021/07/17 08:34:52;;;;;;;8.68;4.55;;;;;;;14.28;56.81;96292.56;5012245;28;20622;-68
2021/07/17 08:37:18;;;;;;;10.93;5.20;;;;;;;14.25;56.66;96288.41;5003066;28;20030;-68
2021/07/17 08:39:44;;;;;;;9.18;4.88;;;;;;;13.99;58.16;96295.03;5004012;28;20041;-68
2021/07/17 08:42:09;;;;;;;11.60;5.25;;;;;;;13.90;56.91;96288.13;5002087;28;20033;-67
2021/07/17 08:44:37;;;;;;;11.75;5.57;;;;;;;14.19;57.44;96284.63;5002404;28;20064;-68
2021/07/17 08:47:02;;;;;;;11.25;5.53;;;;;;;14.55;55.89;96287.56;4996717;28;20050;-67
2021/07/17 08:49:28;;;;;;;8.20;4.88;;;;;;;14.37;55.78;96280.72;4998376;28;20030;-67
2021/07/17 08:51:53;;;;;;;13.65;6.30;;;;;;;15.08;53.88;96281.16;4988766;28;20560;-68
2021/07/17 08:54:19;;;;;;;13.00;6.05;;;;;;;15.55;54.90;96273.53;5002139;28;20069;-67
2021/07/17 08:56:44;;;;;;;12.65;6.38;;;;;;;16.16;52.89;96274.00;5004390;28;20076;-68
2021/07/17 08:59:10;;;;;;;12.73;6.28;;;;;;;16.19;53.23;96286.19;5001612;28;20750;-69
2021/07/17 09:01:36;;;;;;;13.82;5.53;;;;;;;16.71;53.50;96285.84;5002574;28;20128;-68
2021/07/17 09:04:03;;;;;;;14.90;6.20;;;;;;;16.36;51.32;96276.00;4997219;28;20113;-68
2021/07/17 09:06:29;;;;;;;13.70;5.18;;;;;;;16.39;52.49;96283.66;4991204;28;20045;-67
2021/07/17 09:08:55;;;;;;;15.52;6.20;;;;;;;17.32;50.57;96272.56;5001236;28;20046;-68
2021/07/17 09:11:33;;;;;;;11.57;5.65;;;;;;;17.44;50.76;96276.31;5000816;28;20546;-68
2021/07/17 09:13:58;;;;;;;13.18;6.05;;;;;;;17.72;49.07;96285.22;5008502;28;20501;-68
2021/07/17 09:16:24;;;;;;;16.00;6.22;;;;;;;18.37;47.53;96275.63;5002316;28;20097;-68
2021/07/17 09:18:53;;;;;;;11.75;5.72;;;;;;;18.10;47.22;96279.22;4982574;28;20365;-68
2021/07/17 09:21:28;;;;;;;12.55;6.25;;;;;;;17.99;47.61;96278.00;5000664;28;20428;-68
2021/07/17 09:23:53;;;;;;;12.63;5.38;;;;;;;17.12;50.32;96286.81;5002037;28;20196;-67
2021/07/17 09:26:20;;;;;;;14.57;6.70;;;;;;;17.77;49.15;96277.34;5002006;28;20470;-68
2021/07/17 09:28:55;;;;;;;14.73;6.10;;;;;;;18.05;48.30;96274.44;5009700;28;20331;-68
2021/07/17 09:31:21;;;;;;;14.18;6.60;;;;;;;17.66;49.28;96279.66;4990401;28;20193;-64
2021/07/17 09:33:51;;;;;;;15.07;7.00;;;;;;;17.59;49.69;96284.19;5003413;28;20185;-63
2021/07/17 09:36:17;;;;;;;15.25;6.28;;;;;;;17.64;50.28;96280.91;5002341;28;20086;-64
2021/07/17 09:38:42;;;;;;;16.25;7.45;;;;;;;17.10;50.77;96281.59;5001368;28;20148;-63
2021/07/17 09:41:08;;;;;;;13.95;6.68;;;;;;;17.51;50.20;96268.25;4981400;28;20079;-63
2021/07/17 09:43:43;;;;;;;12.63;6.38;;;;;;;17.39;50.13;96273.41;4996500;28;20478;-63
2021/07/17 09:46:20;;;;;;;13.65;6.65;;;;;;;17.24;51.63;96282.50;5012050;28;20101;-64
2021/07/17 09:48:48;;;;;;;13.57;6.63;;;;;;;18.02;50.88;96282.94;4999861;28;20085;-64
2021/07/17 09:51:18;;;;;;;14.23;6.72;;;;;;;17.93;49.93;96276.13;5011132;28;20097;-63
2021/07/17 09:53:45;;;;;;;14.75;7.40;;;;;;;17.91;48.87;96283.56;5009726;28;20106;-63
2021/07/17 09:56:14;;;;;;;11.80;5.82;;;;;;;17.28;50.27;96285.63;5009332;28;20034;-63
2021/07/17 09:58:40;;;;;;;15.65;7.65;;;;;;;17.37;51.23;96280.88;5009815;28;20045;-63
2021/07/17 10:01:25;;;;;;;18.42;7.30;;;;;;;17.92;49.78;96285.25;5010650;28;20130;-63
2021/07/17 10:04:14;;;;;;;14.57;6.82;;;;;;;19.35;45.66;96282.88;5010599;28;20558;-63
2021/07/17 10:06:42;;;;;;;13.60;6.45;;;;;;;19.24;45.17;96285.19;5011865;28;20132;-63
2021/07/17 10:09:16;;;;;;;9.52;6.13;;;;;;;18.97;46.72;96279.97;5012054;28;20030;-64
2021/07/17 10:11:43;;;;;;;12.35;6.15;;;;;;;19.76;45.41;96272.59;5004512;28;20041;-64
2021/07/17 10:14:44;;;;;;;13.05;6.70;;;;;;;20.30;44.22;96269.38;5005386;28;20030;-63
2021/07/17 10:17:16;;;;;;;11.55;6.60;;;;;;;19.39;45.92;96265.19;5012093;28;20099;-63
2021/07/17 10:19:42;;;;;;;13.77;6.60;;;;;;;19.49;47.09;96267.41;5011244;28;20065;-63
2021/07/17 10:22:09;;;;;;;12.20;6.43;;;;;;;20.01;44.93;96269.03;5010977;28;20072;-64
2021/07/17 10:24:34;;;;;;;35.37;7.40;;;;;;;20.19;44.18;96265.56;5009954;28;20038;-63
2021/07/17 10:27:00;;;;;;;12.68;6.35;;;;;;;19.83;45.57;96276.06;5019254;28;20296;-63
2021/07/17 10:29:26;;;;;;;11.63;6.40;;;;;;;20.36;44.46;96272.00;5009564;28;20033;-63
2021/07/17 10:31:52;;;;;;;17.50;6.57;;;;;;;20.66;43.64;96280.47;5011255;28;20036;-64
2021/07/17 10:34:18;;;;;;;9.40;5.53;;;;;;;19.99;44.63;96276.56;5010917;28;20037;-64
2021/07/17 10:37:06;;;;;;;16.50;7.03;;;;;;;19.68;46.75;96279.09;5009482;28;20029;-64
2021/07/17 10:39:34;;;;;;;14.57;6.43;;;;;;;18.63;48.50;96282.00;5009485;28;20045;-63
2021/07/17 10:42:00;;;;;;;16.00;7.20;;;;;;;18.56;50.19;96280.09;5010050;28;20128;-63
2021/07/17 10:44:42;;;;;;;14.00;7.35;;;;;;;19.27;47.00;96283.94;5036356;28;20052;-63
2021/07/17 10:47:08;;;;;;;11.00;5.90;;;;;;;18.20;49.47;96286.84;5003956;28;20042;-64
2021/07/17 10:49:44;;;;;;;16.38;7.25;;;;;;;18.33;50.30;96282.47;5008675;28;20479;-63
2021/07/17 10:52:10;;;;;;;12.90;6.90;;;;;;;18.95;48.09;96284.75;5008517;28;20629;-63
2021/07/17 10:54:36;;;;;;;13.27;6.88;;;;;;;19.32;48.09;96282.28;5008868;28;20049;-63
2021/07/17 10:57:02;;;;;;;13.98;6.88;;;;;;;18.73;49.46;96281.53;5036110;28;20643;-63
2021/07/17 10:59:27;;;;;;;10.40;5.85;;;;;;;18.15;49.55;96276.69;5013013;28;20116;-63
2021/07/17 11:02:03;;;;;;;17.20;7.10;;;;;;;18.38;49.53;96279.94;5003666;28;20045;-63
2021/07/17 11:04:49;;;;;;;13.52;6.68;;;;;;;18.98;48.71;96283.47;5002623;28;20284;-62
2021/07/17 11:07:17;;;;;;;12.63;6.32;;;;;;;19.15;48.85;96278.41;5003690;28;20058;-63
2021/07/17 11:10:09;;;;;;;13.43;6.90;;;;;;;18.44;50.49;96274.56;5008532;28;20172;-63
2021/07/17 11:12:35;;;;;;;12.98;7.18;;;;;;;17.77;52.94;96266.56;5007027;28;20149;-63
2021/07/17 11:15:07;;;;;;;12.50;7.73;;;;;;;18.68;49.48;96266.81;5017452;28;20513;-63
2021/07/17 11:17:49;;;;;;;14.65;7.85;;;;;;;18.74;49.52;96283.19;5012889;28;20045;-64
2021/07/17 11:20:17;;;;;;;16.17;8.43;;;;;;;19.56;46.93;96274.41;5001069;28;20193;-64
2021/07/17 11:22:43;;;;;;;16.05;7.97;;;;;;;19.54;48.40;96278.34;5013400;28;20064;-63